Terminal Aerodrome Forecast
Issued by NWS St Louis, MO

Home | Current Version | Previous Version | Text Only | Print | Product List | Glossary On
Versions: 1 2 3 4 5 6 7 8 9 10 11 12 13 14 15 16 17 18 19
642
FTUS43 KLSX 141738
TAFCOU
TAF
KCOU 141738Z 1418/1518 18012KT 6SM -SN OVC025
      TEMPO 1418/1421 3SM -SHSN BR OVC015
     FM142200 19010KT P6SM OVC025
     FM150200 19010KT P6SM OVC035
     FM150600 20010KT 2SM -SN OVC015
     FM150900 29014G22KT 2SM -SN OVC015
     FM151200 31016G25KT P6SM OVC025=

USA.gov is the U.S. government's official web portal to all federal, state and local government web resources and services.